Time;durP1;ratioP1;P1;durP2;ratioP2;P2;SDS_P1;SDS_P2;PMS_P1;PMS_P2;Temp;Humidity;BMP_temperature;BMP_pressure;BME280_temperature;BME280_humidity;BME280_pressure;Samples;Min_cycle;Max_cycle;Signal;HPM_P1;HPM_P2
2022/10/29 00:01:11;;;;;;;15.80;6.00;;;;;;;10.40;71.04;99756.45;103071;1301;107512;-78
2022/10/29 00:03:43;;;;;;;12.90;6.00;;;;;;;10.40;71.00;99756.84;103112;1306;99374;-78
2022/10/29 00:06:11;;;;;;;14.10;5.70;;;;;;;10.39;71.15;99755.11;103132;1303;99835;-77
2022/10/29 00:08:41;;;;;;;14.30;5.50;;;;;;;10.39;71.26;99746.38;103117;1305;112100;-76
2022/10/29 00:11:19;;;;;;;13.20;6.00;;;;;;;10.40;71.12;99740.32;103123;1296;99324;-75
2022/10/29 00:13:52;;;;;;;10.90;5.10;;;;;;;10.41;71.33;99738.70;103093;1298;107498;-76
2022/10/29 00:16:23;;;;;;;13.00;6.00;;;;;;;10.41;71.64;99733.52;103114;1296;99227;-78
2022/10/29 00:18:51;;;;;;;14.90;5.80;;;;;;;10.41;71.32;99731.55;103159;1296;99901;-79
2022/10/29 00:21:21;;;;;;;15.10;5.80;;;;;;;10.41;71.47;99731.02;102991;1304;112422;-79
2022/10/29 00:23:50;;;;;;;14.30;5.80;;;;;;;10.42;71.69;99730.64;103116;1305;99365;-78
2022/10/29 00:26:20;;;;;;;13.10;5.30;;;;;;;10.41;71.53;99727.11;103084;1296;106599;-78
2022/10/29 00:28:54;;;;;;;10.80;4.80;;;;;;;10.42;71.58;99730.98;103077;1303;99227;-79
2022/10/29 00:31:25;;;;;;;13.10;5.80;;;;;;;10.43;71.79;99729.31;103155;1303;99757;-80
2022/10/29 00:33:54;;;;;;;14.10;5.40;;;;;;;10.44;71.79;99725.89;103115;1303;112472;-79
2022/10/29 00:36:26;;;;;;;11.90;5.10;;;;;;;10.43;71.87;99721.52;103121;1306;99431;-80
2022/10/29 00:38:55;;;;;;;11.30;4.70;;;;;;;10.43;71.77;99716.88;103137;1296;108116;-79
2022/10/29 00:41:29;;;;;;;12.00;5.00;;;;;;;10.44;72.01;99715.79;103129;1303;100380;-78
2022/10/29 00:44:22;;;;;;;11.60;4.90;;;;;;;10.44;71.90;99711.18;103104;1298;99367;-78
2022/10/29 00:46:55;;;;;;;12.50;5.40;;;;;;;10.45;72.19;99709.90;103091;1304;112170;-79
2022/10/29 00:49:25;;;;;;;11.40;5.20;;;;;;;10.44;72.04;99713.13;103112;1304;99330;-78
2022/10/29 00:51:55;;;;;;;12.00;5.20;;;;;;;10.45;72.15;99711.35;103117;1298;107226;-79
2022/10/29 00:54:24;;;;;;;13.60;5.20;;;;;;;10.45;72.18;99712.56;103131;1305;96910;-78
2022/10/29 00:56:57;;;;;;;13.70;5.50;;;;;;;10.45;72.40;99713.81;103132;1303;96563;-78
2022/10/29 00:59:25;;;;;;;10.30;4.50;;;;;;;10.44;72.21;99712.06;103071;1302;112493;-78
2022/10/29 01:01:54;;;;;;;10.80;4.90;;;;;;;10.43;72.44;99706.25;102931;1296;99193;-78
2022/10/29 01:04:24;;;;;;;15.00;5.60;;;;;;;10.43;72.24;99698.64;103061;1302;106515;-79
2022/10/29 01:06:55;;;;;;;14.50;5.20;;;;;;;10.43;72.43;99699.21;103057;1303;99307;-78
2022/10/29 01:09:22;;;;;;;11.40;5.40;;;;;;;10.43;72.95;99696.34;102887;1302;99300;-77
2022/10/29 01:12:00;;;;;;;12.40;5.30;;;;;;;10.44;73.20;99689.75;102854;1301;112411;-79
2022/10/29 01:14:50;;;;;;;10.80;4.90;;;;;;;10.43;72.86;99682.52;103085;1298;99289;-80
2022/10/29 01:17:24;;;;;;;11.70;5.10;;;;;;;10.42;72.90;99684.34;103054;1302;107427;-78
2022/10/29 01:20:19;;;;;;;11.20;5.20;;;;;;;10.41;72.82;99682.63;103045;1305;99378;-76
2022/10/29 01:23:18;;;;;;;10.90;4.70;;;;;;;10.42;73.01;99681.73;103068;1307;99230;-76
2022/10/29 01:26:31;;;;;;;9.00;4.60;;;;;;;10.41;73.24;99686.22;102955;1306;112473;-75
2022/10/29 01:29:26;;;;;;;14.90;5.60;;;;;;;10.39;73.09;99682.92;103051;1297;99248;-78
2022/10/29 01:32:04;;;;;;;12.90;5.50;;;;;;;10.39;73.06;99674.05;103108;1302;107428;-77
2022/10/29 01:34:46;;;;;;;10.70;4.90;;;;;;;10.39;73.14;99666.27;103137;1303;99263;-78
2022/10/29 01:37:30;;;;;;;10.10;4.90;;;;;;;10.39;73.09;99666.27;103130;1296;99318;-77
2022/10/29 01:40:05;;;;;;;10.60;4.70;;;;;;;10.39;73.01;99664.88;103083;1303;112071;-77
2022/10/29 01:42:48;;;;;;;13.20;5.40;;;;;;;10.39;73.10;99666.45;103017;1304;96562;-77
2022/10/29 01:45:25;;;;;;;11.80;5.10;;;;;;;10.40;73.53;99672.64;103071;1303;107095;-78
2022/10/29 01:48:11;;;;;;;14.10;5.40;;;;;;;10.41;73.59;99683.00;103088;1305;99284;-78
2022/10/29 01:50:44;;;;;;;12.10;5.40;;;;;;;10.42;73.27;99687.70;103040;1307;99248;-79
2022/10/29 01:53:12;;;;;;;9.90;4.60;;;;;;;10.44;73.36;99690.81;103123;1302;111130;-78
2022/10/29 01:55:40;;;;;;;11.60;5.20;;;;;;;10.44;73.57;99678.73;103030;1298;98058;-79
2022/10/29 01:58:10;;;;;;;11.10;4.70;;;;;;;10.45;73.72;99667.15;103095;1297;107423;-78
2022/10/29 02:01:13;;;;;;;10.90;4.40;;;;;;;10.44;73.40;99663.33;103109;1297;99386;-79
2022/10/29 02:04:09;;;;;;;13.10;4.70;;;;;;;10.43;73.40;99656.97;102433;1305;99886;-79
2022/10/29 02:07:07;;;;;;;10.10;4.70;;;;;;;10.43;73.40;99651.31;103030;1304;112538;-79
2022/10/29 02:09:55;;;;;;;12.30;5.10;;;;;;;10.43;73.40;99649.16;103121;1296;99392;-78
2022/10/29 02:12:37;;;;;;;11.80;5.60;;;;;;;10.44;73.65;99646.69;103062;1304;107601;-78
2022/10/29 02:15:12;;;;;;;11.30;5.30;;;;;;;10.42;73.52;99636.69;103063;1304;99260;-77
2022/10/29 02:17:40;;;;;;;11.50;5.10;;;;;;;10.41;73.47;99631.55;103125;1298;97245;-78
2022/10/29 02:20:11;;;;;;;12.40;5.30;;;;;;;10.42;73.49;99634.16;103107;1304;112548;-78
2022/10/29 02:22:40;;;;;;;10.30;5.00;;;;;;;10.44;73.55;99635.14;103129;1298;99226;-81
2022/10/29 02:25:09;;;;;;;12.90;5.00;;;;;;;10.45;73.64;99626.91;103119;1298;107526;-77
2022/10/29 02:27:37;;;;;;;10.10;5.10;;;;;;;10.46;73.62;99627.92;103107;1302;96659;-77
2022/10/29 02:30:07;;;;;;;10.00;4.60;;;;;;;10.48;73.71;99634.20;103149;1303;99241;-78
2022/10/29 02:32:35;;;;;;;10.30;4.70;;;;;;;10.50;73.72;99636.89;103140;1298;111105;-78
2022/10/29 02:35:03;;;;;;;15.90;5.80;;;;;;;10.53;73.91;99634.40;103065;1298;98746;-77
2022/10/29 02:37:34;;;;;;;10.90;4.90;;;;;;;10.54;73.88;99622.43;103074;1305;107361;-77
2022/10/29 02:40:03;;;;;;;11.90;5.10;;;;;;;10.55;73.96;99628.79;102921;1292;99393;-76
2022/10/29 02:42:31;;;;;;;11.20;5.00;;;;;;;10.57;73.96;99631.83;103022;1302;96563;-78
2022/10/29 02:44:59;;;;;;;13.30;5.10;;;;;;;10.58;73.92;99627.35;103068;1300;112541;-78
2022/10/29 02:47:27;;;;;;;13.60;5.20;;;;;;;10.60;73.93;99629.04;103095;1300;99347;-78
2022/10/29 02:49:55;;;;;;;11.00;4.90;;;;;;;10.61;73.91;99629.11;103126;1297;107501;-78
2022/10/29 02:52:23;;;;;;;11.20;4.90;;;;;;;10.63;74.31;99621.38;103014;1300;99305;-77
2022/10/29 02:54:51;;;;;;;10.90;4.70;;;;;;;10.63;74.39;99617.77;103140;1297;99302;-76
2022/10/29 02:57:19;;;;;;;12.80;4.90;;;;;;;10.63;74.36;99624.70;103080;1303;111469;-76
2022/10/29 02:59:47;;;;;;;11.10;4.80;;;;;;;10.64;74.18;99622.88;103132;1300;99248;-78
2022/10/29 03:02:14;;;;;;;10.60;4.10;;;;;;;10.65;74.11;99624.96;103134;1298;107543;-77
2022/10/29 03:04:43;;;;;;;11.30;4.60;;;;;;;10.65;74.39;99621.04;103127;1300;99261;-77
2022/10/29 03:07:11;;;;;;;12.40;4.90;;;;;;;10.65;74.58;99614.50;103166;1298;99327;-76
2022/10/29 03:09:39;;;;;;;12.10;5.50;;;;;;;10.65;74.29;99614.33;103109;1302;112314;-78
2022/10/29 03:12:07;;;;;;;8.80;4.60;;;;;;;10.64;74.52;99619.15;103043;1299;96948;-79
2022/10/29 03:14:34;;;;;;;10.90;4.40;;;;;;;10.63;74.68;99616.54;102994;1298;107412;-78
2022/10/29 03:17:02;;;;;;;10.70;4.50;;;;;;;10.64;74.72;99615.05;103051;1303;99223;-77
2022/10/29 03:19:32;;;;;;;8.40;4.30;;;;;;;10.64;74.61;99610.32;103007;1303;99368;-78
2022/10/29 03:21:59;;;;;;;10.70;4.80;;;;;;;10.64;74.82;99608.48;103017;1296;112431;-78
2022/10/29 03:24:27;;;;;;;9.70;4.60;;;;;;;10.64;74.80;99607.82;103048;1298;99757;-80
2022/10/29 03:26:55;;;;;;;10.00;4.00;;;;;;;10.64;74.70;99607.45;103033;1303;106060;-81
2022/10/29 03:29:25;;;;;;;10.50;4.70;;;;;;;10.66;74.70;99604.50;103038;1304;99266;-81
2022/10/29 03:31:52;;;;;;;9.60;4.30;;;;;;;10.66;74.66;99600.58;103106;1298;99253;-82
2022/10/29 03:34:21;;;;;;;10.20;4.60;;;;;;;10.67;74.53;99602.62;103198;1304;112513;-79
2022/10/29 03:36:48;;;;;;;11.50;4.70;;;;;;;10.68;74.85;99599.01;103162;1297;99409;-80
2022/10/29 03:39:16;;;;;;;11.20;4.90;;;;;;;10.69;74.74;99597.88;102991;1299;107485;-80
2022/10/29 03:41:44;;;;;;;9.90;4.70;;;;;;;10.69;74.65;99595.22;103091;1304;99271;-79
2022/10/29 03:44:11;;;;;;;12.20;4.30;;;;;;;10.70;74.76;99603.14;103121;1297;99340;-78
2022/10/29 03:46:39;;;;;;;11.10;4.70;;;;;;;10.71;74.71;99597.09;103146;1300;112231;-82
2022/10/29 03:49:08;;;;;;;11.90;4.70;;;;;;;10.71;74.84;99591.41;103179;1298;99742;-81
2022/10/29 03:51:38;;;;;;;9.50;4.70;;;;;;;10.71;74.74;99588.03;103116;1306;108336;-81
2022/10/29 03:54:07;;;;;;;11.70;4.70;;;;;;;10.70;74.78;99587.52;103144;1304;99342;-79
2022/10/29 03:56:36;;;;;;;10.60;4.30;;;;;;;10.70;74.97;99588.60;103165;1304;99906;-79
2022/10/29 03:59:03;;;;;;;9.60;4.30;;;;;;;10.71;74.73;99589.44;103040;1304;112601;-80
2022/10/29 04:01:32;;;;;;;9.40;4.20;;;;;;;10.71;74.69;99582.35;102913;1293;99374;-77
2022/10/29 04:04:00;;;;;;;15.90;5.00;;;;;;;10.72;74.84;99584.77;103086;1303;107581;-77
2022/10/29 04:06:28;;;;;;;10.00;4.20;;;;;;;10.72;74.74;99586.87;103026;1298;99243;-77
2022/10/29 04:08:56;;;;;;;7.10;4.10;;;;;;;10.73;74.89;99580.80;103083;1296;99117;-76
2022/10/29 04:11:24;;;;;;;10.40;4.10;;;;;;;10.74;74.84;99591.02;103006;1304;112201;-76
2022/10/29 04:13:52;;;;;;;8.90;4.40;;;;;;;10.76;74.86;99591.81;103018;1296;99424;-76
2022/10/29 04:16:20;;;;;;;7.10;3.70;;;;;;;10.77;74.95;99591.16;103067;1303;107551;-76
2022/10/29 04:18:49;;;;;;;8.70;3.60;;;;;;;10.80;75.05;99586.92;103063;1302;99252;-77
2022/10/29 04:21:17;;;;;;;8.10;3.80;;;;;;;10.83;74.93;99582.77;103042;1296;99228;-79
2022/10/29 04:24:06;;;;;;;9.90;3.80;;;;;;;10.87;74.99;99583.94;102954;1301;112637;-77
2022/10/29 04:26:54;;;;;;;9.70;4.40;;;;;;;10.91;74.77;99576.25;103158;1298;99249;-79
2022/10/29 04:29:41;;;;;;;8.50;3.80;;;;;;;10.96;74.96;99582.31;103117;1300;107339;-79
2022/10/29 04:32:09;;;;;;;7.90;3.70;;;;;;;11.00;74.91;99578.48;103064;1306;99272;-77
2022/10/29 04:34:37;;;;;;;9.20;3.80;;;;;;;11.05;74.89;99577.11;103049;1303;96878;-80
2022/10/29 04:37:05;;;;;;;6.80;3.50;;;;;;;11.09;74.92;99567.10;103054;1304;111882;-80
2022/10/29 04:39:33;;;;;;;7.40;3.30;;;;;;;11.13;75.06;99567.86;102889;1300;96890;-79
2022/10/29 04:42:02;;;;;;;7.10;3.40;;;;;;;11.17;74.98;99560.55;103024;1297;106700;-79
2022/10/29 04:44:30;;;;;;;9.00;4.00;;;;;;;11.20;74.85;99563.67;102873;1290;222235;-78
2022/10/29 04:46:58;;;;;;;7.20;3.40;;;;;;;11.23;75.03;99562.59;103013;1298;99324;-78
2022/10/29 04:49:28;;;;;;;6.70;3.20;;;;;;;11.24;74.88;99565.91;103041;1303;112413;-78
2022/10/29 04:51:56;;;;;;;7.60;3.50;;;;;;;11.25;74.90;99566.02;103021;1305;99134;-77
2022/10/29 04:54:23;;;;;;;8.90;4.00;;;;;;;11.26;74.88;99567.05;103029;1303;107437;-78
2022/10/29 04:56:51;;;;;;;5.30;3.50;;;;;;;11.26;74.83;99567.36;103011;1304;99306;-77
2022/10/29 04:59:19;;;;;;;8.10;3.40;;;;;;;11.26;74.79;99566.14;102906;1294;96640;-79
2022/10/29 05:01:47;;;;;;;9.40;3.70;;;;;;;11.27;74.80;99560.43;103039;1304;112238;-78
2022/10/29 05:04:15;;;;;;;7.80;3.90;;;;;;;11.27;74.78;99558.66;103018;1298;99253;-79
2022/10/29 05:06:43;;;;;;;7.20;3.80;;;;;;;11.26;74.80;99556.17;102989;1289;107541;-75
2022/10/29 05:09:11;;;;;;;6.10;3.40;;;;;;;11.26;74.83;99558.36;103060;1297;99921;-79
2022/10/29 05:11:38;;;;;;;5.00;3.10;;;;;;;11.25;74.79;99560.21;103107;1296;99279;-74
2022/10/29 05:14:06;;;;;;;7.50;3.10;;;;;;;11.24;74.80;99567.00;103100;1299;112555;-76
2022/10/29 05:16:34;;;;;;;6.90;3.20;;;;;;;11.24;74.74;99571.44;103095;1297;99266;-78
2022/10/29 05:19:03;;;;;;;7.60;3.40;;;;;;;11.23;74.81;99568.80;103111;1296;106304;-78
2022/10/29 05:21:33;;;;;;;5.50;3.40;;;;;;;11.23;74.75;99566.16;103000;1298;99838;-78
2022/10/29 05:24:00;;;;;;;6.90;3.60;;;;;;;11.24;74.79;99564.36;103031;1304;99958;-72
2022/10/29 05:26:32;;;;;;;6.30;2.90;;;;;;;11.24;74.81;99558.29;103060;1303;111524;-72
2022/10/29 05:29:00;;;;;;;5.70;3.10;;;;;;;11.24;74.78;99553.47;103039;1297;99241;-79
2022/10/29 05:31:27;;;;;;;6.50;3.30;;;;;;;11.25;74.83;99555.95;102901;1306;106564;-78
2022/10/29 05:33:55;;;;;;;6.80;3.00;;;;;;;11.26;74.81;99554.46;103020;1296;99133;-74
2022/10/29 05:36:23;;;;;;;4.80;2.90;;;;;;;11.26;74.75;99560.95;103078;1303;98349;-77
2022/10/29 05:38:51;;;;;;;6.70;2.70;;;;;;;11.28;74.85;99555.89;103026;1298;112183;-78
2022/10/29 05:41:20;;;;;;;6.10;2.90;;;;;;;11.30;74.76;99563.59;103067;1304;99311;-79
2022/10/29 05:43:49;;;;;;;5.60;4.00;;;;;;;11.31;74.68;99559.58;103106;1297;106452;-77
2022/10/29 05:46:17;;;;;;;4.60;2.40;;;;;;;11.33;74.75;99558.58;103045;1297;99340;-79
2022/10/29 05:48:47;;;;;;;4.20;2.60;;;;;;;11.36;74.79;99558.40;103051;1296;97217;-75
2022/10/29 05:51:15;;;;;;;7.50;3.20;;;;;;;11.38;74.73;99556.45;103125;1303;112214;-76
2022/10/29 05:53:43;;;;;;;7.10;2.60;;;;;;;11.41;74.75;99549.01;103019;1290;99270;-79
2022/10/29 05:56:12;;;;;;;7.50;3.00;;;;;;;11.44;74.72;99554.97;102948;1297;106612;-78
2022/10/29 05:58:39;;;;;;;8.60;3.30;;;;;;;11.47;74.73;99555.46;104072;1298;97185;-77
2022/10/29 06:01:09;;;;;;;7.80;2.90;;;;;;;11.50;74.77;99551.19;103077;1304;97297;-75
2022/10/29 06:03:38;;;;;;;5.10;2.80;;;;;;;11.54;74.66;99552.36;103097;1304;112957;-77
2022/10/29 06:06:07;;;;;;;11.90;2.90;;;;;;;11.57;74.63;99556.41;102989;1296;97016;-81
2022/10/29 06:08:36;;;;;;;5.60;2.50;;;;;;;11.60;74.66;99560.11;102808;1307;107837;-81
2022/10/29 06:11:04;;;;;;;3.70;2.30;;;;;;;11.64;74.57;99559.88;102968;1290;99319;-89
2022/10/29 06:13:32;;;;;;;7.50;3.20;;;;;;;11.67;74.64;99560.69;103159;1304;99665;-82
2022/10/29 06:16:01;;;;;;;4.80;2.70;;;;;;;11.71;74.59;99556.89;103138;1304;112644;-80
2022/10/29 06:18:30;;;;;;;7.10;3.10;;;;;;;11.74;74.63;99558.98;103184;1296;96500;-83
2022/10/29 06:20:59;;;;;;;5.00;2.90;;;;;;;11.77;74.57;99559.83;103144;1296;107250;-83
2022/10/29 06:23:29;;;;;;;4.70;2.80;;;;;;;11.80;74.59;99557.50;103155;1298;99341;-81
2022/10/29 06:26:00;;;;;;;5.20;2.70;;;;;;;11.82;74.63;99554.14;103161;1297;99189;-81
2022/10/29 06:28:28;;;;;;;7.30;3.00;;;;;;;11.86;74.51;99556.89;103160;1298;112270;-81
2022/10/29 06:31:02;;;;;;;5.40;2.70;;;;;;;11.90;74.57;99555.90;103208;1296;99332;-82
2022/10/29 06:33:30;;;;;;;3.80;2.50;;;;;;;11.94;74.49;99553.13;103163;1304;107532;-81
2022/10/29 06:36:00;;;;;;;6.50;2.60;;;;;;;11.99;74.44;99547.69;103149;1297;99246;-81
2022/10/29 06:38:28;;;;;;;5.00;2.60;;;;;;;12.02;74.49;99541.90;103177;1302;99292;-80
2022/10/29 06:40:57;;;;;;;6.40;2.70;;;;;;;12.08;74.48;99539.42;103373;1306;112331;-80
2022/10/29 06:43:25;;;;;;;5.10;2.50;;;;;;;12.13;74.43;99537.94;103438;1300;99365;-80
2022/10/29 06:45:52;;;;;;;5.30;2.40;;;;;;;12.19;74.23;99539.52;103632;1304;106190;-82
2022/10/29 06:48:20;;;;;;;8.00;3.10;;;;;;;12.23;74.25;99541.71;103182;1304;99382;-81
2022/10/29 06:50:51;;;;;;;5.20;2.80;;;;;;;12.27;74.32;99543.88;103161;1296;97903;-78
2022/10/29 06:53:19;;;;;;;7.80;4.00;;;;;;;12.32;74.24;99545.10;103148;1296;112591;-80
2022/10/29 06:55:46;;;;;;;7.30;3.20;;;;;;;12.37;74.20;99544.60;103119;1304;98980;-79
2022/10/29 06:58:19;;;;;;;6.90;2.90;;;;;;;12.41;74.24;99538.48;103027;1296;107732;-79
2022/10/29 07:00:47;;;;;;;8.80;2.90;;;;;;;12.46;74.28;99537.93;103053;1298;99347;-81
2022/10/29 07:03:18;;;;;;;6.50;3.40;;;;;;;12.49;74.17;99545.33;103043;1297;96572;-83
2022/10/29 07:05:54;;;;;;;5.00;3.40;;;;;;;12.54;74.23;99543.55;103103;1297;112451;-86
2022/10/29 07:08:24;;;;;;;5.40;2.90;;;;;;;12.59;74.27;99547.30;102989;1305;99312;-70
2022/10/29 07:10:53;;;;;;;6.20;3.10;;;;;;;12.64;74.08;99548.86;103026;1299;108175;-70
2022/10/29 07:13:22;;;;;;;5.80;3.00;;;;;;;12.67;74.17;99557.03;103005;1296;99322;-70
2022/10/29 07:15:50;;;;;;;6.00;3.10;;;;;;;12.69;74.09;99562.05;102947;1300;96654;-69
2022/10/29 07:18:18;;;;;;;6.20;3.10;;;;;;;12.70;73.88;99558.77;103093;1290;112725;-72
2022/10/29 07:20:46;;;;;;;7.30;2.80;;;;;;;12.72;73.82;99563.05;103158;1303;99066;-70
2022/10/29 07:23:14;;;;;;;6.50;3.70;;;;;;;12.75;73.68;99562.11;103015;1304;107447;-70
2022/10/29 07:25:43;;;;;;;5.40;2.90;;;;;;;12.78;73.84;99558.52;103019;1304;99264;-69
2022/10/29 07:28:19;;;;;;;5.30;2.90;;;;;;;12.81;73.84;99557.05;103016;1298;99239;-69
2022/10/29 07:30:50;;;;;;;5.10;2.80;;;;;;;12.85;73.90;99558.55;102891;1302;113345;-69
2022/10/29 07:33:18;;;;;;;5.40;2.90;;;;;;;12.86;73.87;99552.94;102949;1305;99220;-70
2022/10/29 07:35:46;;;;;;;6.80;3.10;;;;;;;12.86;73.77;99545.85;103105;1303;107103;-69
2022/10/29 07:38:15;;;;;;;7.50;3.10;;;;;;;12.86;73.83;99544.96;102960;1291;99381;-71
2022/10/29 07:40:49;;;;;;;7.40;3.10;;;;;;;12.87;73.63;99555.95;103049;1307;99206;-70
2022/10/29 07:43:19;;;;;;;7.00;2.80;;;;;;;12.90;73.68;99564.60;102982;1304;112591;-69
2022/10/29 07:45:50;;;;;;;9.50;3.20;;;;;;;12.96;73.67;99571.11;102821;1304;99321;-69
2022/10/29 07:48:19;;;;;;;7.60;3.10;;;;;;;13.01;73.66;99575.75;102904;1299;107355;-70
2022/10/29 07:50:48;;;;;;;6.80;2.70;;;;;;;13.05;73.67;99575.55;103065;1298;98827;-70
2022/10/29 07:53:16;;;;;;;5.10;2.60;;;;;;;13.08;73.62;99578.59;102990;1297;99231;-70
2022/10/29 07:55:54;;;;;;;5.50;3.00;;;;;;;13.09;73.60;99573.65;102929;1292;112477;-70
2022/10/29 07:58:24;;;;;;;7.10;3.10;;;;;;;13.13;73.58;99573.75;103027;1296;99087;-69
2022/10/29 08:00:53;;;;;;;9.60;2.90;;;;;;;13.20;73.53;99577.16;103096;1294;107571;-69
2022/10/29 08:03:21;;;;;;;3.40;2.40;;;;;;;13.29;73.46;99575.60;102847;1300;96749;-71
2022/10/29 08:05:49;;;;;;;5.90;2.60;;;;;;;13.37;73.49;99586.42;103049;1298;98957;-70
2022/10/29 08:08:24;;;;;;;4.30;2.30;;;;;;;13.46;73.44;99591.84;102955;1297;112164;-70
2022/10/29 08:10:52;;;;;;;5.50;2.20;;;;;;;13.56;73.49;99584.64;103010;1297;97123;-71
2022/10/29 08:13:21;;;;;;;12.30;3.70;;;;;;;13.65;73.42;99583.91;103029;1303;108194;-70
2022/10/29 08:15:48;;;;;;;3.50;2.10;;;;;;;13.72;73.36;99583.21;103065;1296;98870;-70
2022/10/29 08:18:17;;;;;;;5.90;2.90;;;;;;;13.78;73.14;99587.02;103098;1297;99231;-70
2022/10/29 08:20:46;;;;;;;5.80;2.50;;;;;;;13.84;73.09;99592.45;103096;1296;112205;-70
2022/10/29 08:23:13;;;;;;;4.30;2.40;;;;;;;13.93;73.12;99595.13;103097;1298;99231;-72
2022/10/29 08:25:43;;;;;;;4.20;2.40;;;;;;;14.01;72.75;99594.14;103126;1297;107426;-73
2022/10/29 08:28:14;;;;;;;5.90;2.70;;;;;;;14.08;72.93;99595.55;103038;1296;99251;-73
2022/10/29 08:30:49;;;;;;;4.60;2.50;;;;;;;14.21;73.06;99597.20;102983;1297;99221;-71
2022/10/29 08:33:18;;;;;;;5.60;2.70;;;;;;;14.34;73.01;99600.48;103118;1304;111893;-70
2022/10/29 08:35:47;;;;;;;4.60;2.50;;;;;;;14.45;72.95;99604.95;103146;1298;99315;-70
2022/10/29 08:38:16;;;;;;;7.90;2.40;;;;;;;14.53;72.72;99601.24;103048;1304;107096;-70
2022/10/29 08:41:21;;;;;;;5.00;2.50;;;;;;;14.56;72.64;99605.17;103030;1297;99405;-70
2022/10/29 08:43:57;;;;;;;5.50;2.50;;;;;;;14.70;72.70;99604.58;102965;1296;99299;-69
2022/10/29 08:46:52;;;;;;;5.00;2.40;;;;;;;14.93;72.72;99604.11;102969;1297;112072;-69
2022/10/29 08:49:26;;;;;;;6.10;2.40;;;;;;;15.25;72.60;99602.05;103059;1304;99220;-70
2022/10/29 08:52:09;;;;;;;4.70;2.40;;;;;;;15.50;72.70;99599.41;103085;1297;106584;-70
2022/10/29 08:54:41;;;;;;;5.70;2.50;;;;;;;15.66;72.26;99597.77;103101;1303;99234;-70
2022/10/29 08:57:19;;;;;;;7.20;2.30;;;;;;;15.68;72.25;99601.36;103024;1296;99247;-69
2022/10/29 08:59:50;;;;;;;5.90;2.50;;;;;;;15.67;72.31;99601.56;103077;1296;112522;-70
2022/10/29 09:02:18;;;;;;;4.10;2.20;;;;;;;15.67;71.75;99609.27;103004;1297;99019;-70
2022/10/29 09:04:47;;;;;;;4.70;2.50;;;;;;;15.57;71.75;99609.55;102909;1293;108088;-70
2022/10/29 09:07:39;;;;;;;5.80;2.10;;;;;;;15.55;71.98;99615.51;103059;1287;99883;-69
2022/10/29 09:10:31;;;;;;;5.00;2.20;;;;;;;15.55;71.93;99612.63;102980;1307;99407;-70
2022/10/29 09:13:15;;;;;;;3.60;2.40;;;;;;;15.59;71.89;99612.27;103055;1296;113044;-70
2022/10/29 09:15:57;;;;;;;7.10;2.90;;;;;;;15.67;71.82;99607.30;103119;1304;99165;-69
2022/10/29 09:18:29;;;;;;;10.50;3.40;;;;;;;15.68;71.94;99606.34;103032;1298;108181;-69
2022/10/29 09:21:21;;;;;;;6.60;2.50;;;;;;;15.66;71.70;99614.05;102920;1304;99300;-69
2022/10/29 09:23:49;;;;;;;8.50;3.20;;;;;;;15.73;71.64;99616.41;103086;1305;99953;-69
2022/10/29 09:26:45;;;;;;;10.90;3.40;;;;;;;16.01;71.85;99611.39;103014;1297;113255;-69
2022/10/29 09:29:25;;;;;;;9.80;3.00;;;;;;;16.22;71.71;99609.75;103055;1296;99354;-69
2022/10/29 09:31:59;;;;;;;8.80;3.10;;;;;;;16.27;71.59;99602.17;103101;1299;107351;-69
2022/10/29 09:34:33;;;;;;;10.20;2.90;;;;;;;16.41;71.52;99600.07;103065;1290;99340;-70
2022/10/29 09:37:12;;;;;;;9.30;3.20;;;;;;;16.63;71.42;99599.92;103078;1307;99299;-69
2022/10/29 09:39:45;;;;;;;9.40;3.10;;;;;;;16.90;71.39;99598.05;103117;1298;113087;-68
2022/10/29 09:42:33;;;;;;;6.90;3.00;;;;;;;17.14;71.26;99592.48;103141;1302;100332;-69
2022/10/29 09:45:09;;;;;;;9.40;3.00;;;;;;;17.41;71.25;99588.61;103072;1304;108160;-70
2022/10/29 09:48:01;;;;;;;10.40;3.40;;;;;;;17.63;71.29;99586.17;102802;1296;99231;-69
2022/10/29 09:51:04;;;;;;;7.80;3.00;;;;;;;17.88;70.82;99591.73;103072;1304;99303;-69
2022/10/29 09:53:33;;;;;;;8.00;2.80;;;;;;;18.12;70.74;99586.85;103095;1300;112450;-70
2022/10/29 09:56:05;;;;;;;9.10;2.50;;;;;;;18.27;70.64;99584.81;103081;1305;99338;-69
2022/10/29 09:58:38;;;;;;;6.70;2.70;;;;;;;18.41;70.16;99583.09;103060;1297;107295;-71
2022/10/29 10:01:07;;;;;;;7.80;3.50;;;;;;;18.55;70.14;99578.70;103055;1299;96725;-71
2022/10/29 10:03:44;;;;;;;6.00;2.50;;;;;;;18.65;69.92;99576.69;103116;1290;99230;-70
2022/10/29 10:06:16;;;;;;;7.20;2.40;;;;;;;18.69;69.94;99575.36;103110;1303;113204;-73
2022/10/29 10:09:04;;;;;;;7.50;2.30;;;;;;;18.77;69.63;99570.82;103107;1299;98842;-72
2022/10/29 10:11:40;;;;;;;7.50;2.40;;;;;;;18.85;69.32;99554.59;103092;1304;107799;-74
2022/10/29 10:14:21;;;;;;;7.40;2.90;;;;;;;18.90;69.34;99555.70;103103;1296;99345;-74
2022/10/29 10:16:58;;;;;;;7.10;2.90;;;;;;;18.97;68.97;99545.39;103023;1297;99890;-72
2022/10/29 10:19:30;;;;;;;14.50;3.30;;;;;;;19.01;68.88;99539.38;103093;1304;112143;-69
2022/10/29 10:22:04;;;;;;;11.80;3.30;;;;;;;19.06;69.07;99538.95;103164;1296;99276;-69
2022/10/29 10:24:37;;;;;;;9.20;3.10;;;;;;;19.09;68.72;99532.48;103111;1296;107358;-70
2022/10/29 10:27:18;;;;;;;;;;;;;;;19.15;68.70;99530.27;102962;1297;99807;-68
2022/10/29 10:30:02;;;;;;;13.10;2.70;;;;;;;19.20;68.39;99529.94;103130;1296;99228;-69
2022/10/29 10:32:31;;;;;;;8.10;2.80;;;;;;;19.26;67.87;99529.54;102982;1298;112018;-69
2022/10/29 10:34:59;;;;;;;12.30;3.30;;;;;;;19.27;68.10;99527.96;102881;1304;98343;-73
2022/10/29 10:37:32;;;;;;;8.40;3.00;;;;;;;19.32;68.17;99533.60;103111;1304;107367;-73
2022/10/29 10:40:04;;;;;;;13.30;4.30;;;;;;;19.38;68.12;99532.28;103086;1297;99244;-73
2022/10/29 10:42:38;;;;;;;12.20;5.00;;;;;;;19.41;67.70;99531.42;103050;1297;99293;-74
2022/10/29 10:45:21;;;;;;;11.10;4.20;;;;;;;19.40;67.56;99531.10;103027;1296;111913;-73
2022/10/29 10:47:57;;;;;;;9.10;3.70;;;;;;;19.43;67.34;99527.58;103008;1296;96598;-73
2022/10/29 10:50:32;;;;;;;10.10;3.50;;;;;;;19.46;67.15;99523.12;103012;1297;107138;-70
2022/10/29 10:53:17;;;;;;;10.60;3.70;;;;;;;19.48;67.29;99526.31;102974;1304;99238;-70
2022/10/29 10:55:52;;;;;;;11.10;3.40;;;;;;;19.52;66.95;99526.66;103049;1296;99231;-70
2022/10/29 10:58:26;;;;;;;10.90;3.90;;;;;;;19.52;66.97;99529.77;103024;1297;112507;-69
2022/10/29 11:01:01;;;;;;;10.50;3.90;;;;;;;19.52;66.72;99524.34;103051;1297;99420;-69
2022/10/29 11:03:57;;;;;;;9.30;3.20;;;;;;;19.54;66.91;99523.64;102976;1289;107145;-70
2022/10/29 11:06:32;;;;;;;11.00;3.20;;;;;;;19.53;66.39;99521.88;102959;1298;99309;-71
2022/10/29 11:09:11;;;;;;;7.80;2.80;;;;;;;19.54;66.26;99522.69;102971;1297;99983;-70
2022/10/29 11:11:48;;;;;;;11.20;3.60;;;;;;;19.54;66.22;99522.59;102988;1304;112388;-70
2022/10/29 11:14:35;;;;;;;11.90;3.10;;;;;;;19.52;66.11;99519.71;103042;1300;97833;-71
2022/10/29 11:17:20;;;;;;;10.50;2.80;;;;;;;19.47;65.82;99515.80;102942;1291;107401;-70
2022/10/29 11:19:51;;;;;;;12.70;4.30;;;;;;;19.44;65.90;99509.48;102922;1304;99310;-70
2022/10/29 11:22:48;;;;;;;11.50;3.50;;;;;;;19.40;65.42;99506.48;103044;1297;99251;-70
2022/10/29 11:25:31;;;;;;;9.70;3.20;;;;;;;19.34;65.18;99501.89;103099;1297;112614;-70
2022/10/29 11:28:31;;;;;;;9.30;3.20;;;;;;;19.26;65.30;99496.38;103100;1290;99199;-71
2022/10/29 11:31:42;;;;;;;7.50;3.00;;;;;;;19.21;65.10;99503.73;103052;1297;106776;-71
2022/10/29 11:34:25;;;;;;;7.60;3.20;;;;;;;19.15;65.01;99507.79;102864;1296;100359;-70
2022/10/29 11:37:15;;;;;;;9.50;2.50;;;;;;;19.14;64.80;99511.15;103114;1303;99368;-71
2022/10/29 11:39:57;;;;;;;8.10;3.60;;;;;;;19.10;64.80;99508.83;103086;1298;112507;-70
2022/10/29 11:42:25;;;;;;;9.40;3.80;;;;;;;19.08;64.75;99505.46;103154;1297;99318;-70
2022/10/29 11:44:53;;;;;;;12.50;4.30;;;;;;;19.06;64.62;99506.36;103061;1296;107490;-70
2022/10/29 11:47:29;;;;;;;11.40;3.80;;;;;;;19.00;64.50;99505.64;103128;1304;99344;-69